Terminal Aerodrome Forecast
Issued by NWS Austin/San Antonio, TX

Home | Current Version | Previous Version | Text Only | Print | Product List | Glossary On
Versions: 1 2 3 4 5 6 7 8 9 10 11 12 13 14 15 16 17 18 19 20 21 22 23 24 25 26 27 28 29 30 31 32
000
FTUS44 KEWX 302134 AAB
TAFAUS
TAF AMD
KAUS 302134Z 3022/0124 19008KT P6SM VCTS SCT035CB BKN070
      TEMPO 3022/3023 17015G25KT 3SM -TSRA
     FM010000 17008KT P6SM SCT030 BKN100
     FM011100 22007KT P6SM SCT012 SCT250
     FM011600 20008KT P6SM SCT025 SCT250
     FM012100 16012KT P6SM VCSH SCT050 SCT250=

USA.gov is the U.S. government's official web portal to all federal, state and local government web resources and services.